X  Luk Metar data     EHEH Eindhoven Airport
Temperatur
4°C Temperatur
1°C Duggpunkt
81% Fugtighed



Vind
3 M/S
6 MPT
10 KM/T
5 KNOB



360°
N
Nuværende forhold

For det meste spredte skyer For det meste spredte skyer
Tryk 1026.08 (hPa) - 30.3 (inHg)
Sigt 6 (mil) - 9.7 (km)
Lufthavn
Lufthavnskode EHEH

Lokation: Eindhoven Airport
Afstand: 10 (km)

Metar:
EHEH 220125Z AUTO 36005KT 330V030 9999 SCT051 SCT064 BKN074 04/01 Q1026 BLU

Tid: 22-04-2024 03:25 CEST